Time;durP1;ratioP1;P1;durP2;ratioP2;P2;SDS_P1;SDS_P2;PMS_P1;PMS_P2;Temp;Humidity;BMP_temperature;BMP_pressure;BME280_temperature;BME280_humidity;BME280_pressure;Samples;Min_cycle;Max_cycle;Signal;HPM_P1;HPM_P2
2023/01/04 00:00:21;;;;;;;;;;;;;;;16.24;53.43;101740.19;5087199;28;1101;-46
2023/01/04 00:02:46;;;;;;;;;;;;;;;17.29;50.34;101752.50;5087665;28;2410;-45
2023/01/04 00:05:11;;;;;;;;;;;;;;;16.23;53.24;101754.16;5097487;28;1031;-45
2023/01/04 00:07:37;;;;;;;;;;;;;;;15.88;53.88;101760.66;5097627;28;1082;-48
2023/01/04 00:10:02;;;;;;;;;;;;;;;15.73;54.22;101751.00;5097535;28;1097;-43
2023/01/04 00:12:28;;;;;;;;;;;;;;;17.31;50.37;101755.84;5097522;28;899;-47
2023/01/04 00:14:53;;;;;;;;;;;;;;;16.54;52.45;101755.50;5097291;28;1913;-49
2023/01/04 00:17:18;;;;;;;;;;;;;;;16.04;53.48;101757.09;5097423;28;1019;-48
2023/01/04 00:19:44;;;;;;;;;;;;;;;15.78;53.87;101763.16;5097564;28;1173;-48
2023/01/04 00:22:09;;;;;;;;;;;;;;;15.70;54.27;101759.72;5097602;28;1098;-44
2023/01/04 00:24:35;;;;;;;;;;;;;;;17.28;50.59;101762.69;5097303;28;1252;-42
2023/01/04 00:27:00;;;;;;;;;;;;;;;16.71;52.01;101763.72;5097181;28;1049;-46
2023/01/04 00:29:26;;;;;;;;;;;;;;;16.13;53.54;101771.28;5097636;28;1105;-48
2023/01/04 00:31:51;;;;;;;;;;;;;;;15.86;54.12;101776.50;5093627;28;1911;-44
2023/01/04 00:34:16;;;;;;;;;;;;;;;15.63;54.05;101767.25;5095747;28;1905;-44
2023/01/04 00:36:42;;;;;;;;;;;;;;;16.47;52.95;101760.34;5096981;28;991;-48
2023/01/04 00:39:11;;;;;;;;;;;;;;;17.18;50.55;101776.28;5097189;28;1157;-48
2023/01/04 00:41:37;;;;;;;;;;;;;;;16.24;53.17;101777.75;5096811;28;1204;-47
2023/01/04 00:44:04;;;;;;;;;;;;;;;15.90;53.64;101772.19;5096968;28;1149;-43
2023/01/04 00:46:30;;;;;;;;;;;;;;;16.57;52.50;101774.22;5097516;28;1070;-46
2023/01/04 00:48:56;;;;;;;;;;;;;;;17.40;50.21;101779.06;5096544;28;1177;-46
2023/01/04 00:51:21;;;;;;;;;;;;;;;16.42;52.47;101776.72;5097512;28;1138;-46
2023/01/04 00:53:47;;;;;;;;;;;;;;;16.02;53.62;101775.72;5096722;28;1902;-47
2023/01/04 00:56:12;;;;;;;;;;;;;;;17.12;51.08;101784.72;5097113;28;1178;-49
2023/01/04 00:58:38;;;;;;;;;;;;;;;16.75;51.58;101791.53;5096732;28;1125;-48
2023/01/04 01:01:04;;;;;;;;;;;;;;;16.16;53.46;101780.91;5096666;28;849;-45
2023/01/04 01:03:29;;;;;;;;;;;;;;;15.89;53.99;101776.00;5086183;28;2357;-45
2023/01/04 01:05:55;;;;;;;;;;;;;;;15.71;54.07;101785.22;5096734;28;1018;-46
2023/01/04 01:08:23;;;;;;;;;;;;;;;15.57;54.40;101781.91;5095213;28;1468;-45
2023/01/04 01:10:49;;;;;;;;;;;;;;;16.48;52.75;101777.63;5096851;28;1042;-48
2023/01/04 01:13:14;;;;;;;;;;;;;;;17.05;50.89;101782.13;5096522;28;1130;-44
2023/01/04 01:15:40;;;;;;;;;;;;;;;16.13;53.65;101775.91;5096179;28;1909;-47
2023/01/04 01:18:06;;;;;;;;;;;;;;;15.83;53.90;101779.75;5096307;28;1082;-50
2023/01/04 01:20:31;;;;;;;;;;;;;;;15.62;54.62;101771.06;5096608;28;1097;-47
2023/01/04 01:22:57;;;;;;;;;;;;;;;15.65;54.59;101780.72;5096052;28;1111;-48
2023/01/04 01:25:22;;;;;;;;;;;;;;;17.23;50.83;101781.03;5096446;28;951;-49
2023/01/04 01:27:48;;;;;;;;;;;;;;;16.46;52.51;101788.03;5096646;28;1153;-49
2023/01/04 01:30:13;;;;;;;;;;;;;;;15.94;53.65;101787.09;5096394;28;1037;-44
2023/01/04 01:32:38;;;;;;;;;;;;;;;15.72;54.04;101775.91;5091625;28;2252;-47
2023/01/04 01:35:04;;;;;;;;;;;;;;;16.65;52.27;101783.97;5096219;28;1894;-48
2023/01/04 01:37:30;;;;;;;;;;;;;;;16.83;51.67;101782.03;5095772;28;1028;-45
2023/01/04 01:39:55;;;;;;;;;;;;;;;16.10;53.39;101785.47;5095980;28;1034;-46
2023/01/04 01:42:22;;;;;;;;;;;;;;;15.80;54.26;101780.22;5096195;28;1118;-47
2023/01/04 01:44:52;;;;;;;;;;;;;;;15.83;54.34;101787.97;5096042;28;1023;-46
2023/01/04 01:47:19;;;;;;;;;;;;;;;17.41;50.17;101780.72;5094602;28;1142;-48
2023/01/04 01:49:44;;;;;;;;;;;;;;;16.38;52.66;101790.13;5096068;28;1006;-48
2023/01/04 01:52:13;;;;;;;;;;;;;;;15.95;53.71;101780.53;5096086;28;1130;-47
2023/01/04 01:54:40;;;;;;;;;;;;;;;15.72;54.46;101776.78;5094435;28;1902;-47
2023/01/04 01:57:06;;;;;;;;;;;;;;;16.57;52.57;101779.72;5094496;28;1178;-46
2023/01/04 01:59:31;;;;;;;;;;;;;;;17.08;50.87;101782.47;5096176;28;1205;-47
2023/01/04 02:01:57;;;;;;;;;;;;;;;16.20;52.94;101771.09;5091514;28;2203;-48
2023/01/04 02:04:22;;;;;;;;;;;;;;;15.87;53.92;101780.91;5088815;28;1094;-46
2023/01/04 02:06:49;;;;;;;;;;;;;;;15.68;54.17;101775.59;5096016;28;1117;-49
2023/01/04 02:09:14;;;;;;;;;;;;;;;15.52;54.52;101793.63;5094632;28;1070;-43
2023/01/04 02:11:40;;;;;;;;;;;;;;;16.77;52.10;101784.72;5094265;28;1094;-45
2023/01/04 02:16:58;;;;;;;;;;;;;;;16.02;53.39;101788.59;5084405;28;1071;-44
2023/01/04 02:19:43;;;;;;;;;;;;;;;15.76;54.18;101779.84;5095612;28;1130;-46
2023/01/04 02:22:20;;;;;;;;;;;;;;;15.55;54.53;101784.09;5095756;28;1113;-44
2023/01/04 02:24:52;;;;;;;;;;;;;;;17.16;50.81;101783.13;5095096;28;871;-49
2023/01/04 02:27:40;;;;;;;;;;;;;;;16.47;52.38;101784.22;5099019;28;1095;-45
2023/01/04 02:30:09;;;;;;;;;;;;;;;15.90;53.93;101785.91;5094214;28;1280;-48
2023/01/04 02:32:40;;;;;;;;;;;;;;;15.67;54.29;101773.06;5095847;28;2460;-46
2023/01/04 02:35:12;;;;;;;;;;;;;;;16.59;52.50;101776.72;5098604;28;1983;-48
2023/01/04 02:37:39;;;;;;;;;;;;;;;17.13;50.63;101780.88;5099499;28;1181;-48
2023/01/04 02:40:10;;;;;;;;;;;;;;;16.20;52.98;101784.81;5098507;28;1126;-49
2023/01/04 02:45:21;;;;;;;;;;;;;;;15.70;54.39;101784.41;5095589;28;1107;-46
2023/01/04 02:50:35;;;;;;;;;;;;;;;16.43;52.38;101787.44;5099360;28;1010;-50
2023/01/04 02:53:14;;;;;;;;;;;;;;;15.90;53.69;101772.19;5099282;28;1098;-48
2023/01/04 02:55:55;;;;;;;;;;;;;;;16.80;51.75;101780.63;5085438;28;1977;-47
2023/01/04 02:58:40;;;;;;;;;;;;;;;16.65;52.06;101778.47;5085174;28;1018;-47
2023/01/04 03:07:04;;;;;;;;;;;;;;;15.57;54.22;101784.66;5085450;28;1119;-46
2023/01/04 03:09:30;;;;;;;;;;;;;;;17.18;50.72;101792.78;5097842;28;1500;-44
2023/01/04 03:14:46;;;;;;;;;;;;;;;15.96;53.50;101787.66;5097972;28;1906;-47
2023/01/04 03:17:12;;;;;;;;;;;;;;;15.72;54.00;101793.22;5099241;28;1055;-49
2023/01/04 03:19:53;;;;;;;;;;;;;;;16.12;53.36;101780.56;5097496;28;1206;-50
2023/01/04 03:36:40;;;;;;;;;;;;;;;16.91;50.94;101807.22;5094694;28;1039;-47
2023/01/04 03:50:54;;;;;;;;;;;;;;;16.17;52.90;101801.78;5085012;28;1109;-48
2023/01/04 03:53:19;;;;;;;;;;;;;;;15.85;53.75;101807.75;5096913;28;1186;-44
2023/01/04 03:55:45;;;;;;;;;;;;;;;16.71;52.13;101809.59;5096850;28;1909;-49
2023/01/04 03:58:10;;;;;;;;;;;;;;;16.84;51.23;101816.69;5096679;28;1023;-47
2023/01/04 04:00:36;;;;;;;;;;;;;;;16.15;52.98;101817.66;5098271;28;1069;-46
2023/01/04 04:03:11;;;;;;;;;;;;;;;15.82;53.85;101819.22;5087511;28;2255;-46
2023/01/04 04:08:30;;;;;;;;;;;;;;;17.01;50.92;101817.53;5097851;28;1120;-45
2023/01/04 04:10:55;;;;;;;;;;;;;;;16.59;51.96;101817.91;5097436;28;1101;-46
2023/01/04 04:13:21;;;;;;;;;;;;;;;16.03;53.54;101826.78;5098213;28;884;-46
2023/01/04 04:15:47;;;;;;;;;;;;;;;15.78;53.90;101831.72;5097836;28;1985;-46
2023/01/04 04:18:12;;;;;;;;;;;;;;;15.63;54.26;101838.53;5097611;28;1158;-46
2023/01/04 04:20:37;;;;;;;;;;;;;;;16.79;51.82;101833.91;5097689;28;1038;-46
2023/01/04 04:23:03;;;;;;;;;;;;;;;16.90;50.89;101844.03;5097046;28;1158;-48
2023/01/04 04:25:28;;;;;;;;;;;;;;;16.13;53.10;101836.28;5097156;28;1074;-47
2023/01/04 04:27:54;;;;;;;;;;;;;;;15.84;53.83;101842.56;5097567;28;1109;-45
2023/01/04 04:30:19;;;;;;;;;;;;;;;15.62;54.19;101842.34;5097848;28;1067;-50
2023/01/04 04:32:45;;;;;;;;;;;;;;;16.85;51.58;101843.91;5092741;28;2492;-45
2023/01/04 04:35:10;;;;;;;;;;;;;;;16.67;51.70;101857.88;5097366;28;1917;-46
2023/01/04 04:37:36;;;;;;;;;;;;;;;16.02;53.40;101849.81;5096980;28;1061;-49
2023/01/04 04:40:02;;;;;;;;;;;;;;;15.79;53.67;101853.44;5097505;28;1152;-47
2023/01/04 04:42:27;;;;;;;;;;;;;;;15.62;54.39;101857.97;5097149;28;1744;-49
2023/01/04 04:44:52;;;;;;;;;;;;;;;17.12;50.78;101856.16;5097282;28;1086;-47
2023/01/04 04:47:18;;;;;;;;;;;;;;;16.54;51.78;101862.59;5097129;28;1015;-48
2023/01/04 04:49:43;;;;;;;;;;;;;;;16.01;53.26;101864.59;5096620;28;1079;-43
2023/01/04 04:52:09;;;;;;;;;;;;;;;15.77;53.88;101871.16;5096714;28;1070;-44
2023/01/04 04:54:34;;;;;;;;;;;;;;;15.69;54.12;101873.22;5084752;28;1905;-46
2023/01/04 04:56:59;;;;;;;;;;;;;;;17.30;50.24;101874.31;5095126;28;1069;-47
2023/01/04 04:59:25;;;;;;;;;;;;;;;16.40;52.51;101873.03;5096472;28;1201;-41
2023/01/04 05:01:50;;;;;;;;;;;;;;;15.95;53.68;101870.22;5094087;28;1937;-43
2023/01/04 05:04:18;;;;;;;;;;;;;;;15.72;53.99;101872.75;5092155;28;1181;-48
2023/01/04 05:06:46;;;;;;;;;;;;;;;15.93;53.88;101872.38;5097050;28;1094;-44
2023/01/04 05:09:12;;;;;;;;;;;;;;;17.37;49.86;101872.22;5096687;28;1078;-39
2023/01/04 05:14:21;;;;;;;;;;;;;;;15.85;53.75;101863.44;5089613;28;1906;-44
2023/01/04 05:16:47;;;;;;;;;;;;;;;15.69;54.09;101869.66;5089611;28;1090;-43
2023/01/04 05:19:12;;;;;;;;;;;;;;;16.59;51.99;101862.69;5082826;28;1141;-45
2023/01/04 05:21:39;;;;;;;;;;;;;;;16.96;50.66;101866.06;5089063;28;1226;-42
2023/01/04 05:24:05;;;;;;;;;;;;;;;16.13;53.00;101874.69;5089943;28;1225;-47
2023/01/04 05:26:30;;;;;;;;;;;;;;;15.82;53.74;101865.84;5084228;28;855;-41
2023/01/04 05:28:56;;;;;;;;;;;;;;;15.65;54.00;101871.19;5095775;28;1042;-45
2023/01/04 05:31:21;;;;;;;;;;;;;;;16.28;53.05;101860.44;5088825;28;1161;-42
2023/01/04 05:33:47;;;;;;;;;;;;;;;16.94;50.83;101860.81;5093924;28;2157;-43
2023/01/04 05:36:12;;;;;;;;;;;;;;;16.04;53.37;101861.34;5094261;28;1917;-41
2023/01/04 05:38:37;;;;;;;;;;;;;;;15.77;53.79;101865.69;5095656;28;1016;-44
2023/01/04 05:42:23;;;;;;;;;;;;;;;15.91;53.65;101861.66;5078294;28;1189;-43
2023/01/04 05:43:48;;;;;;;;;;;;;;;17.02;50.64;101863.16;5089945;28;1072;-46
2023/01/04 05:46:14;;;;;;;;;;;;;;;16.11;53.12;101863.13;5089291;28;1008;-42
2023/01/04 05:48:39;;;;;;;;;;;;;;;15.80;53.96;101870.75;5089512;28;1107;-47
2023/01/04 05:51:05;;;;;;;;;;;;;;;16.06;53.30;101883.06;5083405;28;847;-42
2023/01/04 05:53:30;;;;;;;;;;;;;;;17.51;49.71;101880.94;5094337;28;2558;-46
2023/01/04 05:55:56;;;;;;;;;;;;;;;16.50;51.99;101888.88;5089104;28;1959;-44
2023/01/04 05:58:21;;;;;;;;;;;;;;;16.00;53.40;101886.78;5090078;28;1309;-47
2023/01/04 06:00:46;;;;;;;;;;;;;;;15.78;53.73;101892.03;5085197;28;1051;-44
2023/01/04 06:03:12;;;;;;;;;;;;;;;15.79;53.92;101886.34;5099614;28;941;-44
2023/01/04 06:05:37;;;;;;;;;;;;;;;17.33;50.18;101877.38;5103477;28;1146;-45
2023/01/04 06:08:03;;;;;;;;;;;;;;;16.42;52.21;101873.63;5096177;28;1026;-48
2023/01/04 06:10:28;;;;;;;;;;;;;;;15.97;53.21;101893.59;5082894;28;1030;-44
2023/01/04 06:12:54;;;;;;;;;;;;;;;15.78;54.02;101889.28;5096268;28;1026;-41
2023/01/04 06:15:19;;;;;;;;;;;;;;;15.59;54.08;101892.19;5095812;28;1902;-45
2023/01/04 06:17:45;;;;;;;;;;;;;;;16.87;51.21;101895.84;5102347;28;1070;-44
2023/01/04 06:20:10;;;;;;;;;;;;;;;16.55;51.92;101899.09;5103072;28;1122;-46
2023/01/04 06:22:35;;;;;;;;;;;;;;;15.98;53.21;101906.22;5087425;28;1079;-40
2023/01/04 06:25:01;;;;;;;;;;;;;;;17.45;49.61;101908.34;5082517;28;1102;-41
2023/01/04 06:27:26;;;;;;;;;;;;;;;16.51;52.22;101908.91;5098307;28;851;-41
2023/01/04 06:29:52;;;;;;;;;;;;;;;18.17;48.58;101924.22;5103307;28;1081;-42
2023/01/04 06:32:17;;;;;;;;;;;;;;;17.56;49.39;101920.34;5102314;28;1043;-45
2023/01/04 06:34:43;;;;;;;;;;;;;;;16.62;50.73;101915.44;5102357;28;1894;-44
2023/01/04 06:37:09;;;;;;;;;;;;;;;17.95;49.33;101928.63;5087647;28;1214;-47
2023/01/04 06:39:35;;;;;;;;;;;;;;;16.86;50.51;101930.72;5092579;28;1547;-46
2023/01/04 06:42:01;;;;;;;;;;;;;;;16.86;51.16;101929.91;5089225;28;1189;-43
2023/01/04 06:44:26;;;;;;;;;;;;;;;17.45;50.31;101941.34;5102551;28;1142;-44
2023/01/04 06:46:52;;;;;;;;;;;;;;;17.27;51.09;101933.38;5102015;28;1129;-47
2023/01/04 06:49:18;;;;;;;;;;;;;;;18.86;47.29;101937.38;5102388;28;1078;-48
2023/01/04 06:51:44;;;;;;;;;;;;;;;17.51;49.67;101939.50;5099700;28;906;-44
2023/01/04 06:54:12;;;;;;;;;;;;;;;17.02;49.55;101947.50;5099584;28;1910;-48
2023/01/04 06:56:38;;;;;;;;;;;;;;;17.09;50.46;101957.25;5102047;28;1140;-46
2023/01/04 06:59:03;;;;;;;;;;;;;;;17.22;50.38;101947.88;5102209;28;1124;-45
2023/01/04 07:01:29;;;;;;;;;;;;;;;17.62;50.50;101957.00;5101465;28;1071;-46
2023/01/04 07:03:54;;;;;;;;;;;;;;;19.06;47.06;101956.06;5090813;28;932;-48
2023/01/04 07:06:19;;;;;;;;;;;;;;;17.52;49.60;101954.13;5087983;28;1102;-46
2023/01/04 07:08:45;;;;;;;;;;;;;;;17.11;49.35;101957.03;5088996;28;1130;-45
2023/01/04 07:11:10;;;;;;;;;;;;;;;18.06;49.27;101946.13;5101849;28;1050;-44
2023/01/04 07:13:36;;;;;;;;;;;;;;;17.15;49.92;101949.09;5091414;28;1208;-46
2023/01/04 07:16:01;;;;;;;;;;;;;;;17.53;50.32;101962.13;5078718;28;1979;-44
2023/01/04 07:18:27;;;;;;;;;;;;;;;17.61;50.06;101958.94;5099303;28;1058;-46
2023/01/04 07:20:52;;;;;;;;;;;;;;;17.17;49.49;101971.69;5097556;28;1061;-44
2023/01/04 07:23:17;;;;;;;;;;;;;;;17.58;50.11;101972.34;5079102;28;1030;-47
2023/01/04 07:25:43;;;;;;;;;;;;;;;17.43;50.49;101970.19;5092348;28;1027;-46
2023/01/04 07:28:08;;;;;;;;;;;;;;;16.92;49.75;101970.97;5098358;28;991;-44
2023/01/04 07:30:34;;;;;;;;;;;;;;;17.80;50.12;101966.91;5085531;28;1134;-44
2023/01/04 07:32:59;;;;;;;;;;;;;;;17.14;50.25;101969.41;5098872;28;1046;-46
2023/01/04 07:35:25;;;;;;;;;;;;;;;16.89;49.69;101971.47;5084969;28;1972;-46
2023/01/04 07:37:50;;;;;;;;;;;;;;;17.67;49.69;101976.34;5098729;28;1117;-46
2023/01/04 07:40:15;;;;;;;;;;;;;;;16.96;49.95;101970.47;5101213;28;1315;-46
2023/01/04 07:42:41;;;;;;;;;;;;;;;18.54;48.71;101982.22;5091082;28;1189;-45
2023/01/04 07:45:06;;;;;;;;;;;;;;;17.56;50.12;101985.53;5098391;28;1049;-48
2023/01/04 07:47:32;;;;;;;;;;;;;;;17.02;49.73;101985.97;5088943;28;1027;-45
2023/01/04 07:49:58;;;;;;;;;;;;;;;17.94;49.59;101986.69;5078628;28;1173;-45
2023/01/04 07:52:24;;;;;;;;;;;;;;;17.16;49.88;101989.25;5092149;28;857;-44
2023/01/04 07:54:49;;;;;;;;;;;;;;;17.96;49.98;101992.75;5091109;28;1965;-48
2023/01/04 07:57:15;;;;;;;;;;;;;;;17.86;49.54;101981.56;5091788;28;1090;-46
2023/01/04 07:59:40;;;;;;;;;;;;;;;17.19;49.83;101991.50;5096707;28;1253;-48
2023/01/04 08:02:06;;;;;;;;;;;;;;;17.50;50.00;101997.50;5083559;28;1269;-44
2023/01/04 08:04:31;;;;;;;;;;;;;;;17.19;50.02;101991.50;5097590;28;985;-49
2023/01/04 08:06:57;;;;;;;;;;;;;;;17.60;49.94;101993.03;5084231;28;1105;-45
2023/01/04 08:09:22;;;;;;;;;;;;;;;18.39;48.73;101988.38;5097820;28;1054;-46
2023/01/04 08:11:47;;;;;;;;;;;;;;;17.33;50.11;102001.09;5095160;28;1309;-44
2023/01/04 08:14:13;;;;;;;;;;;;;;;17.90;50.14;102000.06;5080123;28;1914;-50
2023/01/04 08:16:39;;;;;;;;;;;;;;;17.61;50.14;101999.34;5077251;28;861;-46
2023/01/04 08:19:05;;;;;;;;;;;;;;;17.15;49.40;101996.66;5083080;28;1039;-46
2023/01/04 08:21:31;;;;;;;;;;;;;;;16.96;49.60;101985.06;5087169;28;1261;-47
2023/01/04 08:23:57;;;;;;;;;;;;;;;17.23;50.49;101985.25;5093710;28;1248;-50
2023/01/04 08:26:22;;;;;;;;;;;;;;;16.95;49.52;101983.38;5093842;28;1019;-45
2023/01/04 08:28:48;;;;;;;;;;;;;;;18.19;49.38;101996.34;5092108;28;1237;-46
2023/01/04 08:31:14;;;;;;;;;;;;;;;17.41;49.86;101989.69;5089052;28;1201;-47
2023/01/04 08:33:39;;;;;;;;;;;;;;;17.61;50.37;101989.19;5085715;28;1281;-46
2023/01/04 08:36:25;;;;;;;;;;;;;;;18.13;49.26;101999.06;5090251;28;1909;-45
2023/01/04 08:38:51;;;;;;;;;;;;;;;17.18;50.03;101998.06;5085788;28;1828;-47
2023/01/04 08:41:17;;;;;;;;;;;;;;;16.95;48.79;102016.34;5088560;28;1352;-49
2023/01/04 08:43:42;;;;;;;;;;;;;;;17.77;49.34;102011.44;5085664;28;1245;-45
2023/01/04 08:46:07;;;;;;;;;;;;;;;17.03;49.81;102006.91;5091081;28;1233;-45
2023/01/04 08:48:33;;;;;;;;;;;;;;;17.83;49.86;102012.34;5095671;28;1041;-42
2023/01/04 08:50:59;;;;;;;;;;;;;;;17.91;49.91;102014.72;5077655;28;1398;-47
2023/01/04 08:53:24;;;;;;;;;;;;;;;17.15;49.63;102009.56;5077831;28;1040;-43
2023/01/04 08:55:50;;;;;;;;;;;;;;;16.93;49.48;102016.59;5090146;28;1984;-50
2023/01/04 08:58:16;;;;;;;;;;;;;;;17.50;50.16;102025.00;5088970;28;1091;-36
2023/01/04 09:00:41;;;;;;;;;;;;;;;17.03;49.53;102015.97;5087397;28;1038;-38
2023/01/04 09:03:07;;;;;;;;;;;;;;;18.46;48.74;102016.53;5091764;28;1119;-44
2023/01/04 09:05:32;;;;;;;;;;;;;;;17.50;49.96;102009.38;5087980;28;1186;-42
2023/01/04 09:08:00;;;;;;;;;;;;;;;17.05;49.17;102001.97;5087074;28;1209;-40
2023/01/04 09:10:26;;;;;;;;;;;;;;;18.03;49.68;102018.16;5085585;28;1178;-41
2023/01/04 09:12:51;;;;;;;;;;;;;;;17.16;50.01;102014.00;5087724;28;1241;-43
2023/01/04 09:15:17;;;;;;;;;;;;;;;16.92;48.93;102008.63;5085033;28;1961;-41
2023/01/04 09:17:42;;;;;;;;;;;;;;;17.89;49.60;102005.81;5084997;28;1174;-39
2023/01/04 09:20:08;;;;;;;;;;;;;;;17.08;49.87;102002.31;5086499;28;1221;-40
2023/01/04 09:22:34;;;;;;;;;;;;;;;17.45;50.27;102012.03;5087064;28;1277;-43
2023/01/04 09:24:59;;;;;;;;;;;;;;;17.90;49.54;102004.75;5083246;28;1050;-44
2023/01/04 09:27:24;;;;;;;;;;;;;;;17.12;49.59;101999.06;5086425;28;1277;-47
2023/01/04 09:29:50;;;;;;;;;;;;;;;17.69;50.09;102014.59;5087238;28;1179;-46
2023/01/04 09:32:15;;;;;;;;;;;;;;;17.56;49.83;101997.34;5086390;28;1241;-52
2023/01/04 09:34:41;;;;;;;;;;;;;;;17.02;49.54;101991.47;5085993;28;1983;-49
2023/01/04 09:37:07;;;;;;;;;;;;;;;16.89;48.53;101998.13;5083736;28;1178;-44
2023/01/04 09:39:32;;;;;;;;;;;;;;;17.68;49.76;101993.69;5085343;28;1264;-45
2023/01/04 09:42:04;;;;;;;;;;;;;;;17.07;49.87;101997.09;5081474;28;1064;-49
2023/01/04 09:44:40;;;;;;;;;;;;;;;17.97;49.43;102005.44;5078959;28;1197;-47
2023/01/04 09:47:10;;;;;;;;;;;;;;;18.12;49.31;101997.38;5074851;28;1081;-46
2023/01/04 09:49:35;;;;;;;;;;;;;;;17.23;49.57;101998.19;5071861;28;1066;-46
2023/01/04 09:52:01;;;;;;;;;;;;;;;17.13;49.72;101998.81;5057519;28;1111;-44
2023/01/04 09:54:28;;;;;;;;;;;;;;;17.81;49.93;102004.34;5067648;28;1972;-47
2023/01/04 09:56:54;;;;;;;;;;;;;;;17.14;49.77;102005.16;5054905;28;2450;-46
2023/01/04 09:59:22;;;;;;;;;;;;;;;18.60;48.62;102007.91;5057139;28;1172;-46
2023/01/04 10:01:48;;;;;;;;;;;;;;;17.60;49.90;101997.69;5051960;28;1220;-48
2023/01/04 10:04:17;;;;;;;;;;;;;;;17.20;49.20;101994.00;5074135;28;1035;-49
2023/01/04 10:06:42;;;;;;;;;;;;;;;17.41;49.66;101994.34;5056849;28;1895;-45
2023/01/04 10:09:12;;;;;;;;;;;;;;;17.73;49.87;101991.03;5056823;28;1959;-48
2023/01/04 10:11:44;;;;;;;;;;;;;;;17.16;49.21;101986.50;5043694;28;1039;-46
2023/01/04 10:14:18;;;;;;;;;;;;;;;17.49;49.83;101985.69;5075076;28;1979;-47
2023/01/04 10:16:56;;;;;;;;;;;;;;;17.54;50.10;101987.69;5075047;28;842;-47
2023/01/04 10:19:37;;;;;;;;;;;;;;;17.01;49.04;101985.16;5061945;28;1103;-50
2023/01/04 10:22:06;;;;;;;;;;;;;;;18.47;48.72;101990.69;5045460;28;973;-47
2023/01/04 10:24:34;;;;;;;;;;;;;;;17.29;49.88;101994.41;5068914;28;1167;-47
2023/01/04 10:27:26;;;;;;;;;;;;;;;18.05;49.87;101994.00;5067375;28;1075;-47
2023/01/04 10:29:51;;;;;;;;;;;;;;;17.83;49.61;101993.09;5036674;28;1202;-47
2023/01/04 10:32:28;;;;;;;;;;;;;;;17.27;49.28;101993.84;5074805;28;1168;-45
2023/01/04 10:34:54;;;;;;;;;;;;;;;17.16;48.67;101992.00;5064927;28;1918;-43
2023/01/04 10:37:23;;;;;;;;;;;;;;;17.69;49.56;101985.16;5071802;28;1115;-44
2023/01/04 10:39:53;;;;;;;;;;;;;;;17.08;49.43;101985.84;5070537;28;1031;-43
2023/01/04 10:42:22;;;;;;;;;;;;;;;18.14;49.44;101991.63;5086253;28;1856;-44
2023/01/04 10:45:06;;;;;;;;;;;;;;;17.32;49.51;101991.19;5083409;28;1121;-46
2023/01/04 10:47:41;;;;;;;;;;;;;;;18.40;48.92;102001.06;5083623;28;1079;-48
2023/01/04 10:50:15;;;;;;;;;;;;;;;18.07;49.15;101991.81;5098948;28;971;-42
2023/01/04 10:53:00;;;;;;;;;;;;;;;17.28;49.20;101995.53;5088477;28;879;-46
2023/01/04 10:55:35;;;;;;;;;;;;;;;17.43;49.72;101987.53;5113516;28;1909;-40
2023/01/04 10:58:05;;;;;;;;;;;;;;;17.51;49.43;101988.19;5098913;28;1014;-41
2023/01/04 11:00:37;;;;;;;;;;;;;;;17.01;49.15;101982.41;5097817;28;1023;-42
2023/01/04 11:03:13;;;;;;;;;;;;;;;17.55;49.47;101994.84;5097044;28;1039;-41
2023/01/04 11:05:39;;;;;;;;;;;;;;;17.53;49.89;101980.50;5088111;28;1412;-41
2023/01/04 11:08:25;;;;;;;;;;;;;;;17.10;49.01;101980.91;5082000;28;1412;-43
2023/01/04 11:10:52;;;;;;;;;;;;;;;17.91;49.45;101990.75;5090673;28;1815;-46
2023/01/04 11:13:17;;;;;;;;;;;;;;;17.39;49.68;101977.25;5087085;28;1286;-39
2023/01/04 11:15:44;;;;;;;;;;;;;;;16.99;49.10;101975.50;5083398;28;1988;-41
2023/01/04 11:18:10;;;;;;;;;;;;;;;17.77;49.33;101986.69;5094235;28;1229;-42
2023/01/04 11:20:35;;;;;;;;;;;;;;;17.00;50.13;101978.00;5092561;28;1310;-43
2023/01/04 11:23:03;;;;;;;;;;;;;;;18.88;47.78;101990.34;5085300;28;1159;-43
2023/01/04 11:25:31;;;;;;;;;;;;;;;18.00;49.31;101991.16;5088344;28;1178;-41
2023/01/04 11:27:57;;;;;;;;;;;;;;;17.34;49.41;101983.50;5093524;28;1316;-42
2023/01/04 11:30:24;;;;;;;;;;;;;;;17.23;49.50;101981.69;5086264;28;1142;-42
2023/01/04 11:32:55;;;;;;;;;;;;;;;17.57;49.67;101981.69;5088213;28;1480;-44
2023/01/04 11:35:37;;;;;;;;;;;;;;;17.19;48.82;101986.00;5087142;28;1910;-42
2023/01/04 11:38:08;;;;;;;;;;;;;;;17.83;49.47;101987.59;5091575;28;1167;-48
2023/01/04 11:40:34;;;;;;;;;;;;;;;17.36;49.52;101980.50;5086910;28;1206;-42
2023/01/04 11:43:10;;;;;;;;;;;;;;;17.07;48.71;101977.84;5077399;28;1103;-43
2023/01/04 11:45:36;;;;;;;;;;;;;;;18.09;48.98;101983.28;5080780;28;1039;-44
2023/01/04 11:48:05;;;;;;;;;;;;;;;17.24;49.48;101980.59;5086739;28;1123;-41
2023/01/04 11:50:33;;;;;;;;;;;;;;;17.99;49.54;101994.97;5089360;28;1190;-42
2023/01/04 11:52:59;;;;;;;;;;;;;;;17.70;49.64;101986.03;5080126;28;1225;-44
2023/01/04 11:55:25;;;;;;;;;;;;;;;17.16;49.34;101987.31;5090488;28;1959;-46
2023/01/04 11:58:06;;;;;;;;;;;;;;;16.88;48.33;101982.69;5084079;28;1030;-41
2023/01/04 12:00:32;;;;;;;;;;;;;;;18.19;49.06;101985.34;5095891;28;1137;-44
2023/01/04 12:03:13;;;;;;;;;;;;;;;17.24;49.50;101980.59;5094232;28;1479;-44
2023/01/04 12:05:38;;;;;;;;;;;;;;;18.18;49.44;101980.94;5081500;28;1152;-48
2023/01/04 12:08:04;;;;;;;;;;;;;;;17.88;49.73;101993.16;5077192;28;1133;-45
2023/01/04 12:10:29;;;;;;;;;;;;;;;17.31;49.28;101989.53;5092573;28;1139;-45
2023/01/04 12:12:55;;;;;;;;;;;;;;;17.07;48.13;101978.66;5077941;28;2287;-46
2023/01/04 12:15:29;;;;;;;;;;;;;;;17.69;49.03;101974.16;5077223;28;1922;-41
2023/01/04 12:17:56;;;;;;;;;;;;;;;17.30;49.54;101974.09;5086178;28;1162;-42
2023/01/04 12:20:22;;;;;;;;;;;;;;;17.67;49.84;101970.84;5084426;28;1433;-43
2023/01/04 12:22:48;;;;;;;;;;;;;;;18.21;49.21;101975.75;5087886;28;1190;-45
2023/01/04 12:25:22;;;;;;;;;;;;;;;17.36;49.24;101970.38;5086733;28;1182;-44
2023/01/04 12:27:48;;;;;;;;;;;;;;;18.00;49.84;101980.16;5087716;28;1027;-41
2023/01/04 12:30:46;;;;;;;;;;;;;;;17.46;49.74;101977.94;5086019;28;1044;-42
2023/01/04 12:33:30;;;;;;;;;;;;;;;17.77;49.80;101975.69;5045842;28;1521;-42
2023/01/04 12:35:59;;;;;;;;;;;;;;;17.87;49.34;101983.25;5086706;28;1914;-44
2023/01/04 12:38:48;;;;;;;;;;;;;;;17.34;49.11;101989.00;5084850;28;1351;-42
2023/01/04 12:41:13;;;;;;;;;;;;;;;18.51;48.72;101990.16;5076378;28;1966;-42
2023/01/04 12:43:39;;;;;;;;;;;;;;;17.49;49.50;101985.69;5084905;28;1291;-41
2023/01/04 12:49:28;;;;;;;;;;;;;;;17.45;49.46;101984.53;5086853;28;1119;-43
2023/01/04 12:52:06;;;;;;;;;;;;;;;16.98;48.55;101973.81;5087983;28;1233;-41
2023/01/04 12:54:43;;;;;;;;;;;;;;;18.09;48.97;101978.63;5096148;28;1905;-43
2023/01/04 12:57:08;;;;;;;;;;;;;;;17.20;49.50;101976.69;5089808;28;1031;-43
2023/01/04 12:59:35;;;;;;;;;;;;;;;16.98;48.52;101977.38;5084292;28;1233;-42
2023/01/04 13:02:19;;;;;;;;;;;;;;;18.20;48.88;101987.03;5087529;28;1222;-44
2023/01/04 13:04:45;;;;;;;;;;;;;;;17.25;49.00;101985.00;5090060;28;1201;-45
2023/01/04 13:07:40;;;;;;;;;;;;;;;17.66;49.28;101985.69;5087751;28;1222;-45
2023/01/04 13:10:24;;;;;;;;;;;;;;;17.37;49.27;101991.25;5064183;28;1204;-44
2023/01/04 13:13:01;;;;;;;;;;;;;;;17.00;48.47;101971.66;5089645;28;2230;-43
2023/01/04 13:15:47;;;;;;;;;;;;;;;17.89;49.04;101970.06;5085581;28;1966;-45
2023/01/04 13:18:24;;;;;;;;;;;;;;;17.18;48.77;101973.34;5043839;28;1184;-43
2023/01/04 13:20:50;;;;;;;;;;;;;;;18.49;48.26;101975.81;5086691;28;1086;-47
2023/01/04 13:23:15;;;;;;;;;;;;;;;17.44;49.35;101977.34;5077875;28;1274;-49
2023/01/04 13:25:41;;;;;;;;;;;;;;;17.18;48.35;101985.19;5084061;28;1136;-43
2023/01/04 13:28:12;;;;;;;;;;;;;;;18.13;48.76;101979.78;5090274;28;1105;-45
2023/01/04 13:30:37;;;;;;;;;;;;;;;17.30;49.26;101982.34;5086326;28;1311;-46
2023/01/04 13:33:10;;;;;;;;;;;;;;;17.16;49.03;101972.75;5082688;28;1233;-42
2023/01/04 13:35:35;;;;;;;;;;;;;;;17.65;49.41;101974.94;5077909;28;1906;-46
2023/01/04 13:38:01;;;;;;;;;;;;;;;17.16;48.77;101976.34;5090507;28;1233;-46
2023/01/04 13:40:27;;;;;;;;;;;;;;;17.87;49.13;101975.00;5083597;28;1167;-48
2023/01/04 13:42:56;;;;;;;;;;;;;;;17.36;49.54;101972.28;5077506;28;1194;-42